Time;durP1;ratioP1;P1;durP2;ratioP2;P2;SDS_P1;SDS_P2;PMS_P1;PMS_P2;Temp;Humidity;BMP_temperature;BMP_pressure;BME280_temperature;BME280_humidity;BME280_pressure;Samples;Min_cycle;Max_cycle;Signal;HPM_P1;HPM_P2
2024/04/09 00:04:20;;;;;;;1.35;1.00;;;21.60;61.20;;;;;;11145535;26;20019;-56
2024/04/09 00:09:29;;;;;;;1.90;1.00;;;21.60;61.20;;;;;;11135906;26;20355;-59
2024/04/09 00:14:32;;;;;;;1.60;1.00;;;21.60;61.20;;;;;;11142025;26;20000;-58
2024/04/09 00:19:35;;;;;;;2.20;0.98;;;21.50;61.10;;;;;;11143272;26;20008;-57
2024/04/09 00:24:41;;;;;;;2.17;0.95;;;21.50;61.10;;;;;;11148908;26;20473;-56
2024/04/09 00:29:44;;;;;;;2.72;0.90;;;21.50;61.10;;;;;;11154549;26;19996;-58
2024/04/09 00:34:48;;;;;;;1.33;0.90;;;21.50;61.10;;;;;;11146290;26;20012;-57
2024/04/09 00:39:54;;;;;;;0.98;0.70;;;21.50;61.30;;;;;;11146839;26;20015;-61
2024/04/09 00:44:58;;;;;;;2.38;0.88;;;21.50;61.40;;;;;;11143515;26;20074;-60
2024/04/09 00:50:04;;;;;;;1.15;0.90;;;21.40;61.30;;;;;;11141800;26;20019;-59
2024/04/09 00:55:10;;;;;;;1.40;0.82;;;21.40;61.50;;;;;;11145319;26;20361;-54
2024/04/09 01:00:14;;;;;;;1.55;0.90;;;21.40;61.50;;;;;;11140445;26;20015;-55
2024/04/09 01:05:17;;;;;;;2.60;0.85;;;21.40;61.50;;;;;;11141913;26;20000;-56
2024/04/09 01:10:23;;;;;;;0.93;0.73;;;21.40;61.60;;;;;;11135308;26;20012;-62
2024/04/09 01:15:26;;;;;;;0.73;0.63;;;21.30;62.20;;;;;;11153799;26;20000;-59
2024/04/09 01:20:29;;;;;;;0.75;0.63;;;21.30;61.60;;;;;;11142987;26;20011;-55
2024/04/09 01:25:36;;;;;;;1.75;0.80;;;21.30;61.60;;;;;;11152085;26;20011;-58
2024/04/09 01:30:40;;;;;;;1.98;0.70;;;21.30;61.70;;;;;;11181647;26;20023;-58
2024/04/09 01:35:44;;;;;;;1.33;0.60;;;21.30;61.70;;;;;;11189105;26;20000;-56
2024/04/09 01:40:50;;;;;;;1.02;0.80;;;21.30;61.80;;;;;;11148881;26;20014;-60
2024/04/09 01:45:53;;;;;;;1.10;0.68;;;21.30;61.80;;;;;;11149315;26;19996;-56
2024/04/09 01:50:57;;;;;;;2.97;0.80;;;21.20;61.70;;;;;;11150800;26;20007;-58
2024/04/09 01:56:06;;;;;;;1.17;0.90;;;21.20;61.70;;;;;;11155193;26;19996;-61
2024/04/09 02:01:10;;;;;;;0.80;0.70;;;21.20;61.80;;;;;;11162295;26;20409;-56
2024/04/09 02:06:17;;;;;;;0.82;0.70;;;21.20;61.90;;;;;;11145480;26;20000;-60
2024/04/09 02:11:28;;;;;;;1.08;0.70;;;21.20;61.90;;;;;;11164459;26;20012;-53
2024/04/09 02:16:31;;;;;;;0.60;0.60;;;21.10;61.90;;;;;;11149571;26;20082;-60
2024/04/09 02:21:35;;;;;;;1.42;0.70;;;21.20;61.90;;;;;;11163124;26;19996;-54
2024/04/09 02:26:42;;;;;;;1.73;0.80;;;21.20;61.80;;;;;;11148341;26;20340;-62
2024/04/09 02:31:47;;;;;;;1.35;0.85;;;21.20;61.80;;;;;;11156386;26;20011;-54
2024/04/09 02:36:51;;;;;;;2.10;0.60;;;21.10;61.60;;;;;;11153614;26;21163;-59
2024/04/09 02:41:57;;;;;;;0.65;0.60;;;21.20;61.60;;;;;;11149898;26;20011;-60
2024/04/09 02:47:00;;;;;;;1.13;0.68;;;21.10;61.70;;;;;;11204395;26;20006;-60
2024/04/09 02:52:03;;;;;;;0.68;0.63;;;21.10;61.70;;;;;;11166030;26;20464;-55
2024/04/09 02:57:09;;;;;;;0.63;0.60;;;21.10;61.80;;;;;;11146420;26;20000;-58
2024/04/09 03:02:14;;;;;;;0.80;0.70;;;21.10;62.00;;;;;;11143598;26;20000;-58
2024/04/09 03:07:17;;;;;;;0.60;0.60;;;21.20;61.90;;;;;;11145462;26;20014;-54
2024/04/09 03:12:23;;;;;;;1.83;0.80;;;21.50;61.30;;;;;;11154747;26;20011;-57
2024/04/09 03:17:26;;;;;;;0.95;0.60;;;21.80;61.30;;;;;;11134102;26;20012;-56
2024/04/09 03:22:30;;;;;;;0.90;0.60;;;22.10;60.70;;;;;;11143670;26;20351;-58
2024/04/09 03:27:36;;;;;;;1.98;0.65;;;22.10;60.40;;;;;;11142385;26;20011;-56
2024/04/09 03:32:39;;;;;;;1.05;0.55;;;22.10;60.20;;;;;;11136529;26;20032;-58
2024/04/09 03:37:42;;;;;;;16.70;4.53;;;22.20;60.00;;;;;;11134160;26;20010;-60
2024/04/09 03:42:48;;;;;;;27.13;7.05;;;22.20;60.20;;;;;;11135801;26;20007;-53
2024/04/09 03:47:52;;;;;;;21.90;6.18;;;22.30;61.00;;;;;;11150402;26;19995;-57
2024/04/09 03:52:56;;;;;;;16.05;5.45;;;22.40;61.10;;;;;;11147363;26;20004;-60
2024/04/09 03:58:03;;;;;;;14.85;4.70;;;22.50;61.70;;;;;;11147107;26;20012;-56
2024/04/09 04:03:06;;;;;;;13.77;4.78;;;22.50;61.10;;;;;;11144985;26;21597;-56
2024/04/09 04:08:09;;;;;;;13.65;4.82;;;22.50;61.00;;;;;;11172960;26;19999;-59
2024/04/09 04:13:15;;;;;;;14.88;4.55;;;22.50;60.90;;;;;;11134403;26;20349;-57
2024/04/09 04:18:18;;;;;;;11.73;4.18;;;22.50;60.70;;;;;;11153795;26;20000;-54
2024/04/09 04:23:22;;;;;;;10.68;3.75;;;22.60;60.70;;;;;;11146566;26;20015;-61
2024/04/09 04:28:28;;;;;;;12.52;4.07;;;22.60;60.50;;;;;;11142478;26;20000;-60
2024/04/09 04:33:31;;;;;;;12.15;3.47;;;22.70;60.30;;;;;;11150926;26;20023;-60
2024/04/09 04:38:34;;;;;;;8.80;3.30;;;22.70;60.40;;;;;;11151125;26;20008;-60
2024/04/09 04:43:41;;;;;;;9.50;3.40;;;22.70;60.40;;;;;;11158714;26;20098;-60
2024/04/09 04:48:44;;;;;;;15.98;4.15;;;22.80;60.40;;;;;;11166283;26;20001;-59
2024/04/09 04:53:47;;;;;;;16.77;4.88;;;22.90;61.20;;;;;;11146006;26;20019;-59
2024/04/09 04:58:53;;;;;;;17.95;4.25;;;23.00;62.00;;;;;;11141180;26;20000;-63
2024/04/09 05:03:56;;;;;;;20.10;4.70;;;23.00;62.30;;;;;;11161422;26;20023;-63
2024/04/09 05:09:00;;;;;;;16.52;4.78;;;22.90;62.80;;;;;;11148308;26;20012;-63
2024/04/09 05:14:05;;;;;;;17.75;5.90;;;22.80;63.00;;;;;;11166596;26;20012;-62
2024/04/09 05:19:09;;;;;;;20.13;6.13;;;22.80;63.50;;;;;;11160751;26;20004;-61
2024/04/09 05:24:12;;;;;;;26.73;6.63;;;22.80;63.20;;;;;;11152168;26;19996;-62
2024/04/09 05:29:18;;;;;;;34.80;8.63;;;22.80;65.00;;;;;;11157258;26;20073;-63
2024/04/09 05:34:22;;;;;;;30.45;7.30;;;22.80;64.60;;;;;;11143016;26;20015;-62
2024/04/09 05:39:25;;;;;;;20.80;6.75;;;22.80;63.70;;;;;;11141210;26;20037;-62
2024/04/09 05:44:31;;;;;;;27.45;6.80;;;22.80;63.30;;;;;;11155991;26;20000;-63
2024/04/09 05:49:35;;;;;;;24.30;6.22;;;22.80;63.20;;;;;;11167124;26;20031;-63
2024/04/09 05:54:41;;;;;;;17.75;5.63;;;22.80;63.50;;;;;;11148648;26;20014;-58
2024/04/09 05:59:47;;;;;;;19.08;5.40;;;22.90;64.20;;;;;;11130824;26;20011;-60
2024/04/09 06:04:51;;;;;;;19.65;5.30;;;22.90;64.40;;;;;;11144181;26;20000;-61
2024/04/09 06:09:54;;;;;;;26.70;5.45;;;22.90;64.10;;;;;;11147970;26;20040;-61
2024/04/09 06:15:00;;;;;;;15.85;4.50;;;22.80;63.60;;;;;;11156016;26;20341;-60
2024/04/09 06:20:04;;;;;;;16.65;4.25;;;22.80;63.50;;;;;;11156615;26;20004;-61
2024/04/09 06:25:09;;;;;;;11.10;4.35;;;22.90;63.20;;;;;;11153350;26;20015;-58
2024/04/09 06:30:14;;;;;;;11.52;4.15;;;22.90;63.10;;;;;;11151291;26;20000;-61
2024/04/09 06:35:18;;;;;;;14.02;4.15;;;22.90;62.90;;;;;;11153177;26;20322;-61
2024/04/09 06:40:22;;;;;;;16.25;4.85;;;22.90;63.20;;;;;;11157682;26;20466;-59
2024/04/09 06:45:28;;;;;;;25.25;6.00;;;22.80;63.70;;;;;;11158833;26;20590;-60
2024/04/09 06:50:31;;;;;;;19.90;6.03;;;22.90;65.10;;;;;;11138196;26;20018;-60
2024/04/09 06:55:35;;;;;;;19.15;5.72;;;22.80;65.30;;;;;;11144015;26;20012;-61
2024/04/09 07:00:40;;;;;;;18.80;6.00;;;22.70;66.00;;;;;;11149817;26;20010;-60
2024/04/09 07:05:44;;;;;;;23.77;6.72;;;22.70;65.50;;;;;;11158107;26;20012;-61
2024/04/09 07:10:55;;;;;;;21.80;5.82;;;22.70;65.30;;;;;;11153932;26;20015;-61
2024/04/09 07:16:02;;;;;;;20.48;5.60;;;22.70;65.60;;;;;;11151905;26;20007;-59
2024/04/09 07:21:05;;;;;;;22.27;5.78;;;22.60;65.50;;;;;;11163508;26;20003;-60
2024/04/09 07:26:09;;;;;;;15.45;5.28;;;22.60;65.50;;;;;;11165123;26;19999;-60
2024/04/09 07:31:15;;;;;;;17.35;5.20;;;22.50;65.60;;;;;;11172106;26;20008;-62
2024/04/09 07:36:20;;;;;;;17.85;5.25;;;22.60;65.70;;;;;;11184057;26;20048;-61
2024/04/09 07:41:25;;;;;;;15.93;4.78;;;22.60;65.10;;;;;;11182212;26;20516;-59
2024/04/09 07:46:31;;;;;;;14.65;4.55;;;22.60;65.50;;;;;;11186123;26;20000;-61
2024/04/09 07:51:35;;;;;;;11.23;4.47;;;22.70;65.40;;;;;;11166956;26;20019;-60
2024/04/09 07:56:38;;;;;;;14.85;4.13;;;22.60;65.20;;;;;;11170974;26;20015;-60
2024/04/09 08:01:44;;;;;;;12.43;4.07;;;22.70;64.90;;;;;;11172731;26;20040;-61
2024/04/09 08:06:47;;;;;;;16.13;4.45;;;22.80;64.50;;;;;;11173133;26;20060;-60
2024/04/09 08:11:50;;;;;;;13.52;4.15;;;22.70;64.80;;;;;;11175322;26;20001;-59
2024/04/09 08:16:56;;;;;;;11.05;4.20;;;22.70;64.50;;;;;;11185188;26;20344;-59
2024/04/09 08:22:00;;;;;;;18.17;4.30;;;22.70;64.10;;;;;;11178568;26;20007;-60
2024/04/09 08:27:03;;;;;;;14.43;3.88;;;22.70;64.20;;;;;;11177764;26;20003;-61
2024/04/09 08:32:10;;;;;;;31.50;4.22;;;22.90;72.80;;;;;;11184801;26;20360;-57
2024/04/09 08:37:13;;;;;;;11.77;3.55;;;22.90;64.80;;;;;;11181649;26;20347;-50
2024/04/09 08:42:17;;;;;;;13.73;3.90;;;22.70;64.00;;;;;;11181492;26;20013;-50
2024/04/09 08:47:24;;;;;;;15.43;4.93;;;22.90;72.80;;;;;;11221403;26;20012;-50
2024/04/09 08:52:29;;;;;;;14.50;5.47;;;22.70;64.40;;;;;;11175395;26;20015;-53
2024/04/09 08:57:32;;;;;;;13.88;5.28;;;22.70;64.50;;;;;;11156360;26;20045;-53
2024/04/09 09:02:40;;;;;;;9.52;3.88;;;22.60;64.00;;;;;;11151603;26;20000;-51
2024/04/09 09:07:43;;;;;;;12.65;4.13;;;22.60;64.50;;;;;;11153585;26;20107;-54
2024/04/09 09:12:50;;;;;;;7.93;2.90;;;22.70;64.30;;;;;;11156481;26;20351;-51
2024/04/09 09:17:55;;;;;;;12.00;3.50;;;22.70;64.20;;;;;;11155783;26;20002;-50
2024/04/09 09:22:59;;;;;;;6.88;2.97;;;22.70;64.80;;;;;;11156841;26;20019;-56
2024/04/09 09:28:07;;;;;;;11.23;2.63;;;22.70;64.20;;;;;;11155837;26;20533;-54
2024/04/09 09:33:16;;;;;;;6.47;2.95;;;22.80;63.50;;;;;;11142489;26;20671;-51
2024/04/09 09:38:19;;;;;;;7.80;2.60;;;22.80;63.10;;;;;;11151382;26;20018;-51
2024/04/09 09:43:23;;;;;;;7.32;2.88;;;22.70;63.70;;;;;;11168595;26;20011;-50
2024/04/09 09:48:29;;;;;;;8.40;2.70;;;22.80;63.90;;;;;;11174188;26;20012;-51
2024/04/09 09:53:33;;;;;;;8.48;2.80;;;22.80;63.60;;;;;;11181087;26;20014;-52
2024/04/09 09:58:37;;;;;;;18.13;3.05;;;22.80;63.30;;;;;;11177957;26;20010;-52
2024/04/09 10:03:44;;;;;;;8.40;2.60;;;22.90;62.90;;;;;;11227239;26;20002;-50
2024/04/09 10:08:47;;;;;;;10.27;2.35;;;22.80;62.30;;;;;;11159438;26;19996;-50
2024/04/09 10:13:54;;;;;;;7.85;2.63;;;22.80;62.20;;;;;;11151786;26;20000;-55
2024/04/09 10:19:00;;;;;;;6.95;2.67;;;23.30;63.40;;;;;;11161256;26;20003;-53
2024/04/09 10:24:04;;;;;;;8.65;3.05;;;23.30;61.70;;;;;;11165010;26;20017;-49
2024/04/09 10:29:08;;;;;;;10.40;2.60;;;23.10;61.50;;;;;;11225682;26;20008;-52
2024/04/09 10:34:24;;;;;;;7.47;2.67;;;23.00;62.80;;;;;;11150382;26;20081;-52
2024/04/09 10:39:28;;;;;;;11.32;3.30;;;23.00;64.90;;;;;;11147174;26;20008;-52
2024/04/09 10:44:31;;;;;;;7.32;2.78;;;23.00;65.00;;;;;;11149302;26;20445;-53
2024/04/09 10:49:38;;;;;;;14.80;2.50;;;23.00;65.40;;;;;;11150210;26;20018;-49
2024/04/09 10:54:41;;;;;;;8.10;2.47;;;23.00;65.10;;;;;;11173228;26;20354;-50
2024/04/09 10:59:46;;;;;;;6.18;2.58;;;23.00;64.60;;;;;;11204703;26;20014;-49
2024/04/09 11:04:52;;;;;;;5.97;2.65;;;22.80;64.40;;;;;;11164165;26;20025;-53
2024/04/09 11:09:56;;;;;;;6.28;2.60;;;22.80;63.90;;;;;;11144959;26;20010;-50
2024/04/09 11:15:00;;;;;;;7.75;2.45;;;22.80;64.20;;;;;;11164805;26;20092;-53
2024/04/09 11:20:14;;;;;;;5.13;2.20;;;22.80;64.00;;;;;;11168684;26;20033;-50
2024/04/09 11:25:19;;;;;;;6.07;2.40;;;22.80;63.90;;;;;;11177078;26;20049;-52
2024/04/09 11:30:26;;;;;;;5.05;2.17;;;22.80;64.10;;;;;;11175628;26;20000;-56
2024/04/09 11:35:33;;;;;;;5.25;2.28;;;22.60;63.00;;;;;;11175464;26;20322;-52
2024/04/09 11:40:36;;;;;;;4.05;2.10;;;22.70;63.60;;;;;;11176064;26;19999;-56
2024/04/09 11:45:42;;;;;;;7.57;2.25;;;22.60;64.00;;;;;;11183616;26;20011;-52
2024/04/09 11:50:48;;;;;;;4.97;1.95;;;22.60;63.90;;;;;;11175911;26;20010;-51
2024/04/09 11:55:53;;;;;;;3.75;1.77;;;22.60;63.70;;;;;;11178947;26;20015;-54
2024/04/09 12:00:58;;;;;;;4.72;2.08;;;22.60;63.80;;;;;;11178398;26;20014;-52
2024/04/09 12:06:03;;;;;;;3.92;2.10;;;22.60;63.60;;;;;;11167446;26;20076;-52
2024/04/09 12:11:07;;;;;;;5.38;1.85;;;22.60;63.60;;;;;;11164010;26;19996;-50
2024/04/09 12:16:11;;;;;;;3.97;1.98;;;22.70;63.60;;;;;;11152457;26;20359;-50
2024/04/09 12:21:17;;;;;;;4.30;1.92;;;22.50;63.90;;;;;;11156415;26;20003;-54
2024/04/09 12:26:20;;;;;;;2.97;1.77;;;22.40;64.20;;;;;;11160580;26;20431;-53
2024/04/09 12:31:23;;;;;;;3.65;1.83;;;22.30;64.60;;;;;;11160206;26;20015;-51
2024/04/09 12:36:29;;;;;;;4.32;1.85;;;22.20;64.70;;;;;;11160025;26;20016;-53
2024/04/09 12:41:32;;;;;;;4.18;1.88;;;22.20;64.90;;;;;;11162053;26;20012;-52
2024/04/09 12:46:36;;;;;;;4.07;2.05;;;22.20;64.90;;;;;;11160878;26;20476;-53
2024/04/09 12:51:42;;;;;;;3.95;1.98;;;22.10;65.00;;;;;;11159639;26;20022;-50
2024/04/09 12:56:45;;;;;;;2.42;1.50;;;22.20;64.90;;;;;;11158658;26;20014;-54
2024/04/09 13:01:48;;;;;;;3.75;1.95;;;22.10;65.00;;;;;;11165317;26;20015;-50
2024/04/09 13:06:54;;;;;;;2.42;1.65;;;22.10;65.00;;;;;;11154365;26;20066;-50
2024/04/09 13:11:58;;;;;;;12.73;2.10;;;22.00;65.00;;;;;;11142003;26;20070;-51
2024/04/09 13:17:01;;;;;;;5.47;2.00;;;22.10;65.00;;;;;;11162311;26;20428;-50
2024/04/09 13:22:07;;;;;;;6.72;1.98;;;22.00;65.00;;;;;;11147489;26;20000;-52
2024/04/09 13:27:10;;;;;;;4.80;1.65;;;22.00;65.10;;;;;;11137974;26;20008;-50
2024/04/09 13:32:14;;;;;;;8.40;1.83;;;22.00;65.20;;;;;;11153847;26;20011;-50
2024/04/09 13:37:20;;;;;;;3.17;1.50;;;22.10;65.30;;;;;;11140355;26;20015;-54
2024/04/09 13:42:23;;;;;;;7.40;1.60;;;22.20;65.30;;;;;;11141515;26;20018;-52
2024/04/09 13:47:26;;;;;;;6.85;1.80;;;22.00;65.50;;;;;;11140671;26;20015;-51
2024/04/09 13:52:32;;;;;;;10.18;2.00;;;22.00;66.20;;;;;;11133760;26;20015;-50
2024/04/09 13:57:36;;;;;;;5.28;1.75;;;22.20;65.90;;;;;;11117753;26;20008;-53
2024/04/09 14:02:39;;;;;;;6.40;1.70;;;22.30;65.00;;;;;;11140417;26;20015;-51
2024/04/09 14:07:45;;;;;;;10.00;1.83;;;22.40;65.40;;;;;;11142428;26;20444;-52
2024/04/09 14:12:48;;;;;;;6.78;1.60;;;22.40;65.00;;;;;;11152504;26;20000;-52
2024/04/09 14:17:54;;;;;;;4.88;1.67;;;22.50;65.30;;;;;;11160654;26;20015;-52
2024/04/09 14:23:00;;;;;;;4.13;1.60;;;24.80;58.40;;;;;;11161214;26;20004;-61
2024/04/09 14:28:04;;;;;;;4.43;1.40;;;;;;;;;;11150684;26;20005;-55
2024/04/09 14:33:07;;;;;;;8.18;1.33;;;25.50;55.80;;;;;;11149340;26;19996;-59
2024/04/09 14:38:14;;;;;;;3.65;1.40;;;;;;;;;;11143123;26;20015;-56
2024/04/09 14:43:17;;;;;;;3.92;1.35;;;25.90;55.20;;;;;;11145044;26;19996;-59
2024/04/09 14:48:21;;;;;;;4.43;1.35;;;25.70;55.50;;;;;;11159923;26;20011;-59
2024/04/09 14:53:27;;;;;;;5.65;1.35;;;25.80;55.80;;;;;;11200684;26;20003;-61
2024/04/09 14:58:31;;;;;;;4.03;1.30;;;25.90;55.10;;;;;;11162415;26;20011;-61
2024/04/09 15:03:35;;;;;;;3.58;1.30;;;26.00;54.30;;;;;;11217608;26;20010;-61
2024/04/09 15:08:42;;;;;;;7.13;1.45;;;;;;;;;;11299486;26;20555;-63
2024/04/09 15:13:46;;;;;;;4.25;1.30;;;26.00;53.50;;;;;;11297951;26;20015;-59
2024/04/09 15:18:49;;;;;;;3.65;1.63;;;26.00;53.70;;;;;;11304882;26;19998;-60
2024/04/09 15:23:56;;;;;;;4.93;1.40;;;25.90;53.50;;;;;;11303682;26;20006;-60
2024/04/09 15:28:59;;;;;;;5.03;1.45;;;26.20;53.40;;;;;;11306298;26;19994;-58
2024/04/09 15:34:02;;;;;;;9.60;1.50;;;26.10;54.40;;;;;;11303750;26;20423;-60
2024/04/09 15:39:09;;;;;;;5.05;1.70;;;26.10;54.60;;;;;;11319103;26;20086;-61
2024/04/09 15:44:12;;;;;;;4.63;1.52;;;26.20;54.50;;;;;;11310856;26;20484;-61
2024/04/09 15:49:15;;;;;;;2.90;1.63;;;26.20;54.50;;;;;;11308532;26;20008;-62
2024/04/09 15:54:21;;;;;;;4.43;1.67;;;26.20;54.50;;;;;;11302523;26;20682;-62
2024/04/09 15:59:24;;;;;;;2.65;1.40;;;26.40;53.40;;;;;;11298828;26;20013;-60
2024/04/09 16:04:28;;;;;;;4.93;1.60;;;26.30;54.30;;;;;;11304315;26;20034;-61
2024/04/09 16:09:34;;;;;;;37.63;2.47;;;26.30;54.40;;;;;;11302905;26;20053;-60
2024/04/09 16:14:37;;;;;;;8.25;1.70;;;26.20;54.60;;;;;;11307340;26;20007;-59
2024/04/09 16:19:42;;;;;;;6.40;1.58;;;26.20;54.80;;;;;;11295946;26;20015;-59
2024/04/09 16:24:47;;;;;;;11.25;1.98;;;26.00;55.00;;;;;;11293261;26;19999;-59
2024/04/09 16:29:55;;;;;;;9.48;2.00;;;26.10;53.80;;;;;;11308206;26;20047;-58
2024/04/09 16:34:58;;;;;;;9.60;1.95;;;26.20;54.90;;;;;;11288444;26;20002;-53
2024/04/09 16:40:04;;;;;;;10.50;2.15;;;26.30;54.80;;;;;;11296911;26;20654;-60
2024/04/09 16:45:08;;;;;;;7.10;1.80;;;26.30;54.80;;;;;;11299784;26;20761;-57
2024/04/09 16:50:13;;;;;;;5.93;1.77;;;26.40;54.30;;;;;;11317976;26;20014;-55
2024/04/09 16:55:19;;;;;;;6.50;1.55;;;26.40;54.10;;;;;;11325753;26;20002;-57
2024/04/09 17:00:22;;;;;;;4.00;1.63;;;26.50;53.40;;;;;;11319710;26;20018;-56
2024/04/09 17:05:25;;;;;;;4.90;1.48;;;26.40;53.40;;;;;;11318635;26;19998;-54
2024/04/09 17:10:32;;;;;;;4.32;1.40;;;26.60;52.80;;;;;;11307818;26;20071;-57
2024/04/09 17:15:35;;;;;;;4.72;1.33;;;26.70;52.20;;;;;;11317617;26;20472;-56
2024/04/09 17:20:38;;;;;;;2.70;1.30;;;26.70;51.80;;;;;;11316042;26;19998;-60
2024/04/09 17:25:45;;;;;;;3.88;1.60;;;26.70;52.20;;;;;;11316531;26;20458;-58
2024/04/09 17:30:54;;;;;;;6.20;1.33;;;26.60;52.20;;;;;;11314972;26;20010;-60
2024/04/09 17:35:57;;;;;;;3.92;1.13;;;26.80;51.80;;;;;;11312958;26;20600;-57
2024/04/09 17:41:03;;;;;;;7.25;1.63;;;26.90;51.40;;;;;;11302395;26;20018;-53
2024/04/09 17:46:07;;;;;;;7.88;1.35;;;26.90;51.50;;;;;;11297329;26;20007;-53
2024/04/09 17:51:10;;;;;;;8.25;1.30;;;27.00;51.20;;;;;;11293121;26;20124;-54
2024/04/09 17:56:16;;;;;;;11.70;1.63;;;27.10;51.20;;;;;;11279289;26;20010;-57
2024/04/09 18:01:20;;;;;;;12.43;1.27;;;27.10;51.60;;;;;;11288642;26;20018;-59
2024/04/09 18:06:25;;;;;;;16.10;2.38;;;27.10;52.00;;;;;;11294878;26;20014;-56
2024/04/09 18:11:31;;;;;;;14.25;7.15;;;27.00;53.00;;;;;;11309977;26;20375;-54
2024/04/09 18:16:34;;;;;;;11.63;7.20;;;27.00;52.10;;;;;;11282995;26;20064;-59
2024/04/09 18:21:37;;;;;;;15.88;7.32;;;26.60;51.80;;;;;;11292408;26;20021;-54
2024/04/09 18:26:43;;;;;;;16.05;6.32;;;26.90;50.70;;;;;;11301020;26;20013;-57
2024/04/09 18:31:48;;;;;;;10.27;4.72;;;27.00;50.00;;;;;;11295820;26;19998;-55
2024/04/09 18:36:51;;;;;;;10.38;4.00;;;26.70;49.50;;;;;;11282854;26;20075;-59
2024/04/09 18:41:57;;;;;;;12.40;3.65;;;26.70;49.70;;;;;;11276881;26;20732;-57
2024/04/09 18:47:00;;;;;;;11.48;3.08;;;26.80;49.50;;;;;;11282558;26;20003;-54
2024/04/09 18:52:04;;;;;;;9.85;2.60;;;26.50;49.00;;;;;;11273203;26;20018;-55
2024/04/09 18:57:10;;;;;;;6.63;2.05;;;26.70;47.90;;;;;;11281413;26;20006;-55
2024/04/09 19:02:13;;;;;;;8.73;1.88;;;26.60;47.80;;;;;;11289314;26;20551;-55
2024/04/09 19:07:16;;;;;;;4.72;1.90;;;26.60;48.10;;;;;;11295109;26;20002;-54
2024/04/09 19:12:22;;;;;;;3.53;1.77;;;26.50;47.60;;;;;;11274847;26;20458;-57
2024/04/09 19:17:25;;;;;;;4.07;1.45;;;26.20;48.60;;;;;;11295010;26;20017;-57
2024/04/09 19:22:29;;;;;;;5.35;1.58;;;26.00;49.60;;;;;;11301214;26;19995;-53
2024/04/09 19:27:35;;;;;;;3.50;1.38;;;25.80;50.20;;;;;;11300747;26;20009;-56
2024/04/09 19:32:38;;;;;;;4.00;1.35;;;25.60;50.70;;;;;;11297836;26;20010;-53
2024/04/09 19:37:41;;;;;;;3.58;1.25;;;25.60;50.70;;;;;;11300391;26;19995;-51
2024/04/09 19:42:47;;;;;;;4.35;1.48;;;25.50;51.10;;;;;;11289649;26;20143;-56
2024/04/09 19:47:50;;;;;;;4.53;1.40;;;25.40;51.10;;;;;;11274410;26;20007;-53
2024/04/09 19:52:53;;;;;;;4.10;1.65;;;25.40;51.00;;;;;;11291477;26;20015;-57
2024/04/09 19:58:01;;;;;;;5.97;1.52;;;25.60;50.70;;;;;;11304382;26;20007;-57
2024/04/09 20:03:04;;;;;;;2.70;1.30;;;25.50;50.90;;;;;;11299766;26;20706;-57
2024/04/09 20:08:08;;;;;;;2.25;1.20;;;25.30;51.40;;;;;;11299096;26;20011;-52
2024/04/09 20:13:14;;;;;;;3.08;1.23;;;25.40;51.10;;;;;;11301787;26;20428;-57
2024/04/09 20:18:17;;;;;;;2.17;1.00;;;25.40;51.00;;;;;;11294601;26;20011;-56
2024/04/09 20:23:21;;;;;;;4.03;1.40;;;25.10;51.60;;;;;;11299329;26;20478;-57
2024/04/09 20:28:27;;;;;;;4.20;1.17;;;25.30;51.20;;;;;;11303281;26;20076;-55
2024/04/09 20:33:30;;;;;;;2.53;1.15;;;25.10;51.50;;;;;;11290546;26;20457;-56
2024/04/09 20:38:34;;;;;;;2.22;1.10;;;24.90;51.90;;;;;;11312856;26;20409;-54
2024/04/09 20:43:40;;;;;;;3.85;1.20;;;24.70;52.90;;;;;;11291071;26;20075;-57
2024/04/09 20:48:43;;;;;;;1.42;0.90;;;24.60;52.80;;;;;;11292899;26;20013;-53
2024/04/09 20:53:46;;;;;;;6.10;1.30;;;24.50;53.20;;;;;;11305263;26;20331;-56
2024/04/09 20:58:52;;;;;;;2.13;1.05;;;24.50;53.10;;;;;;11296917;26;19999;-54
2024/04/09 21:03:55;;;;;;;2.17;0.93;;;24.50;53.20;;;;;;11301790;26;20076;-53
2024/04/09 21:08:59;;;;;;;1.80;1.00;;;24.40;53.20;;;;;;11300467;26;20010;-53
2024/04/09 21:14:04;;;;;;;1.92;1.02;;;24.30;53.30;;;;;;11208054;26;20016;-54
2024/04/09 21:19:08;;;;;;;1.70;1.00;;;24.30;52.90;;;;;;11220463;26;20019;-58
2024/04/09 21:24:14;;;;;;;2.13;1.10;;;24.30;52.80;;;;;;11221355;26;20077;-53
2024/04/09 21:29:20;;;;;;;2.53;1.10;;;24.20;53.10;;;;;;11211358;26;20000;-57
2024/04/09 21:34:23;;;;;;;3.75;1.13;;;24.30;52.70;;;;;;11226350;26;20077;-55
2024/04/09 21:39:27;;;;;;;1.20;0.85;;;24.10;52.50;;;;;;11220086;26;20447;-55
2024/04/09 21:44:33;;;;;;;1.55;1.00;;;24.20;52.70;;;;;;11222929;26;20366;-57
2024/04/09 21:49:36;;;;;;;2.33;1.10;;;24.30;52.20;;;;;;11289051;26;20704;-53
2024/04/09 21:54:40;;;;;;;2.58;1.35;;;24.20;52.40;;;;;;11280389;26;20003;-56
2024/04/09 21:59:45;;;;;;;2.10;0.80;;;24.20;52.10;;;;;;11297827;26;20014;-54
2024/04/09 22:04:49;;;;;;;0.98;0.73;;;24.30;51.60;;;;;;11295227;26;20332;-57
2024/04/09 22:09:52;;;;;;;1.50;0.90;;;24.30;51.70;;;;;;11296212;26;19999;-57
2024/04/09 22:14:58;;;;;;;1.48;0.80;;;24.00;52.30;;;;;;11287638;26;20014;-55
2024/04/09 22:20:01;;;;;;;0.60;0.60;;;24.10;51.80;;;;;;11284915;26;20002;-57
2024/04/09 22:25:05;;;;;;;1.10;0.60;;;24.10;51.80;;;;;;11308324;26;20013;-53
2024/04/09 22:30:12;;;;;;;1.17;0.82;;;24.00;51.90;;;;;;11300051;26;20010;-57
2024/04/09 22:35:15;;;;;;;2.05;0.70;;;23.90;52.10;;;;;;11305845;26;20013;-56
2024/04/09 22:40:19;;;;;;;0.80;0.52;;;23.70;52.70;;;;;;11292288;26;20359;-58
2024/04/09 22:45:25;;;;;;;1.77;0.80;;;23.60;53.00;;;;;;11310963;26;20015;-55
2024/04/09 22:50:28;;;;;;;1.08;0.70;;;23.60;52.90;;;;;;11292099;26;20349;-56
2024/04/09 22:55:31;;;;;;;0.98;0.70;;;23.40;53.20;;;;;;11307532;26;20010;-56
2024/04/09 23:00:37;;;;;;;1.05;0.70;;;23.40;53.20;;;;;;11289316;26;20010;-53
2024/04/09 23:05:40;;;;;;;1.52;0.73;;;23.60;52.60;;;;;;11305423;26;20016;-53
2024/04/09 23:10:44;;;;;;;1.40;0.73;;;23.30;53.10;;;;;;11298037;26;20018;-52
2024/04/09 23:15:51;;;;;;;2.20;0.50;;;23.40;52.90;;;;;;11299346;26;20374;-53
2024/04/09 23:20:56;;;;;;;1.70;0.77;;;23.40;52.90;;;;;;11291871;26;19999;-54
2024/04/09 23:26:00;;;;;;;1.27;0.70;;;23.30;53.00;;;;;;11286652;26;20010;-53
2024/04/09 23:31:06;;;;;;;2.30;0.80;;;23.30;52.90;;;;;;11292411;26;20447;-55
2024/04/09 23:36:09;;;;;;;0.90;0.63;;;23.20;53.20;;;;;;11295746;26;20446;-58
2024/04/09 23:41:12;;;;;;;0.77;0.50;;;23.20;53.30;;;;;;11289538;26;20013;-55
2024/04/09 23:46:18;;;;;;;0.88;0.65;;;23.20;53.00;;;;;;11291579;26;20036;-57
2024/04/09 23:51:22;;;;;;;0.80;0.60;;;23.20;52.90;;;;;;11284389;26;19999;-56
2024/04/09 23:56:27;;;;;;;0.95;0.60;;;23.20;53.00;;;;;;11307816;26;20506;-56
